Time;durP1;ratioP1;P1;durP2;ratioP2;P2;SDS_P1;SDS_P2;PMS_P1;PMS_P2;Temp;Humidity;BMP_temperature;BMP_pressure;BME280_temperature;BME280_humidity;BME280_pressure;Samples;Min_cycle;Max_cycle;Signal;HPM_P1;HPM_P2
2021/12/30 00:01:19;;;;;;;28.77;21.90;;;;;;;;;;143727;627;46022;-61
2021/12/30 00:03:48;;;;;;;28.62;21.52;;;;;;;;;;143728;725;46020;-61
2021/12/30 00:06:21;;;;;;;33.50;25.27;;;;;;;;;;143732;595;46023;-61
2021/12/30 00:08:50;;;;;;;32.53;25.88;;;;;;;;;;143730;578;46020;-61
2021/12/30 00:11:17;;;;;;;23.35;19.10;;;;;;;;;;143727;591;46031;-61
2021/12/30 00:13:47;;;;;;;40.80;26.12;;;;;;;;;;143729;589;46018;-62
2021/12/30 00:16:16;;;;;;;32.30;22.35;;;;;;;;;;143736;614;46022;-62
2021/12/30 00:18:43;;;;;;;24.90;19.25;;;;;;;;;;143729;584;46020;-62
2021/12/30 00:21:10;;;;;;;30.80;23.08;;;;;;;;;;143727;571;46022;-61
2021/12/30 00:23:37;;;;;;;35.08;27.13;;;;;;;;;;143725;610;46018;-62
2021/12/30 00:26:05;;;;;;;29.58;23.25;;;;;;;;;;143732;591;46022;-61
2021/12/30 00:28:32;;;;;;;41.30;29.73;;;;;;;;;;143729;671;46020;-61
2021/12/30 00:31:02;;;;;;;49.42;33.50;;;;;;;;;;143728;566;46030;-61
2021/12/30 00:33:32;;;;;;;43.20;30.05;;;;;;;;;;143729;622;46018;-61
2021/12/30 00:35:59;;;;;;;41.15;26.98;;;;;;;;;;143732;588;46022;-62
2021/12/30 00:38:26;;;;;;;62.33;37.28;;;;;;;;;;143729;578;46020;-62
2021/12/30 00:40:54;;;;;;;48.45;27.95;;;;;;;;;;143729;576;46023;-61
2021/12/30 00:43:21;;;;;;;59.75;32.35;;;;;;;;;;143730;569;46018;-62
2021/12/30 00:45:48;;;;;;;61.00;37.38;;;;;;;;;;143731;566;46022;-62
2021/12/30 00:48:16;;;;;;;71.05;40.30;;;;;;;;;;143729;636;47018;-61
2021/12/30 00:50:44;;;;;;;73.10;40.50;;;;;;;;;;143728;624;46022;-62
2021/12/30 00:53:11;;;;;;;58.22;35.72;;;;;;;;;;143728;575;46018;-62
2021/12/30 00:55:39;;;;;;;54.80;32.95;;;;;;;;;;143732;576;46022;-61
2021/12/30 00:58:07;;;;;;;67.10;40.92;;;;;;;;;;143729;571;46021;-62
2021/12/30 01:00:35;;;;;;;62.67;36.75;;;;;;;;;;143727;570;46022;-62
2021/12/30 01:03:03;;;;;;;65.90;38.75;;;;;;;;;;143730;573;46018;-62
2021/12/30 01:05:30;;;;;;;65.78;40.70;;;;;;;;;;143732;657;46023;-62
2021/12/30 01:07:57;;;;;;;74.78;43.55;;;;;;;;;;143729;639;46020;-62
2021/12/30 01:10:26;;;;;;;84.35;47.58;;;;;;;;;;143725;631;46031;-62
2021/12/30 01:12:55;;;;;;;89.40;46.97;;;;;;;;;;143727;566;46018;-62
2021/12/30 01:15:34;;;;;;;82.62;47.28;;;;;;;;;;143731;570;46022;-62
2021/12/30 01:20:49;;;;;;;68.22;39.40;;;;;;;;;;143728;600;46918;-62
2021/12/30 01:23:17;;;;;;;70.22;37.53;;;;;;;;;;143727;658;46018;-62
2021/12/30 01:25:44;;;;;;;74.68;39.03;;;;;;;;;;143732;587;46022;-62
2021/12/30 01:28:11;;;;;;;75.12;43.58;;;;;;;;;;143729;637;46047;-62
2021/12/30 01:30:38;;;;;;;61.72;37.40;;;;;;;;;;143726;605;46022;-61
2021/12/30 01:33:08;;;;;;;55.65;35.40;;;;;;;;;;143728;619;46018;-62
2021/12/30 01:35:35;;;;;;;55.38;35.22;;;;;;;;;;143732;593;46022;-62
2021/12/30 01:38:02;;;;;;;53.85;34.83;;;;;;;;;;143728;574;46041;-62
2021/12/30 01:40:30;;;;;;;59.47;37.03;;;;;;;;;;143727;584;46023;-61
2021/12/30 01:42:57;;;;;;;53.60;34.60;;;;;;;;;;143727;640;46018;-62
2021/12/30 01:45:27;;;;;;;51.20;34.03;;;;;;;;;;143731;585;46022;-62
2021/12/30 01:47:55;;;;;;;54.20;32.53;;;;;;;;;;143730;564;46020;-62
2021/12/30 01:50:24;;;;;;;54.65;37.42;;;;;;;;;;143729;572;46022;-62
2021/12/30 01:52:51;;;;;;;57.30;34.50;;;;;;;;;;143728;612;46018;-62
2021/12/30 01:55:20;;;;;;;51.95;33.55;;;;;;;;;;143733;583;46022;-62
2021/12/30 01:57:48;;;;;;;49.83;34.28;;;;;;;;;;143729;571;46021;-62
2021/12/30 02:00:19;;;;;;;50.80;32.75;;;;;;;;;;143727;583;46022;-62
2021/12/30 02:02:47;;;;;;;45.15;31.20;;;;;;;;;;143725;614;46018;-62
2021/12/30 02:05:14;;;;;;;45.08;31.20;;;;;;;;;;143733;614;46023;-62
2021/12/30 02:07:42;;;;;;;45.47;29.25;;;;;;;;;;143730;574;46020;-62
2021/12/30 02:10:10;;;;;;;43.33;30.75;;;;;;;;;;143727;573;46023;-62
2021/12/30 02:12:39;;;;;;;43.50;30.67;;;;;;;;;;143727;640;46018;-62
2021/12/30 02:15:09;;;;;;;46.00;30.67;;;;;;;;;;143731;594;46022;-62
2021/12/30 02:17:36;;;;;;;45.67;30.17;;;;;;;;;;143728;604;47019;-61
2021/12/30 02:20:07;;;;;;;43.30;30.17;;;;;;;;;;143724;653;46023;-61
2021/12/30 02:22:34;;;;;;;37.90;27.58;;;;;;;;;;143729;655;46018;-62
2021/12/30 02:25:03;;;;;;;42.10;28.45;;;;;;;;;;143732;570;46024;-61
2021/12/30 02:27:30;;;;;;;39.65;28.48;;;;;;;;;;143729;572;46021;-62
2021/12/30 02:29:57;;;;;;;34.55;25.88;;;;;;;;;;143728;591;46022;-62
2021/12/30 02:32:28;;;;;;;35.70;28.12;;;;;;;;;;143729;583;46018;-61
2021/12/30 02:34:55;;;;;;;37.10;26.02;;;;;;;;;;143733;629;46023;-62
2021/12/30 02:37:22;;;;;;;49.53;34.00;;;;;;;;;;143730;645;46020;-62
2021/12/30 02:39:56;;;;;;;51.55;33.95;;;;;;;;;;143728;679;46023;-62
2021/12/30 02:42:24;;;;;;;47.72;31.67;;;;;;;;;;143729;595;46019;-62
2021/12/30 02:44:52;;;;;;;51.25;33.60;;;;;;;;;;143733;580;46022;-62
2021/12/30 02:47:20;;;;;;;39.92;27.52;;;;;;;;;;143729;576;46020;-62
2021/12/30 02:49:46;;;;;;;44.10;31.10;;;;;;;;;;143724;569;46920;-61
2021/12/30 02:52:14;;;;;;;47.33;30.67;;;;;;;;;;143726;569;46018;-61
2021/12/30 02:54:43;;;;;;;53.05;34.63;;;;;;;;;;143729;636;46022;-61
2021/12/30 02:57:10;;;;;;;45.78;31.08;;;;;;;;;;143724;576;47018;-62
2021/12/30 02:59:37;;;;;;;55.88;33.97;;;;;;;;;;143727;627;46022;-62
2021/12/30 03:02:05;;;;;;;50.25;32.30;;;;;;;;;;143725;596;46018;-61
2021/12/30 03:04:32;;;;;;;55.67;35.03;;;;;;;;;;143728;608;47012;-61
2021/12/30 03:06:59;;;;;;;53.83;36.60;;;;;;;;;;143727;609;46020;-62
2021/12/30 03:09:41;;;;;;;50.15;33.75;;;;;;;;;;143727;630;46023;-61
2021/12/30 03:12:08;;;;;;;50.83;33.95;;;;;;;;;;143724;579;46018;-62
2021/12/30 03:14:41;;;;;;;47.17;32.50;;;;;;;;;;143730;570;46022;-61
2021/12/30 03:17:09;;;;;;;47.53;32.08;;;;;;;;;;143726;570;47019;-61
2021/12/30 03:19:36;;;;;;;44.97;29.73;;;;;;;;;;143727;604;46022;-61
2021/12/30 03:22:03;;;;;;;51.67;33.67;;;;;;;;;;143726;606;46018;-61
2021/12/30 03:24:31;;;;;;;50.03;33.03;;;;;;;;;;143731;571;46022;-61
2021/12/30 03:26:58;;;;;;;50.20;33.97;;;;;;;;;;143724;665;47021;-61
2021/12/30 03:29:25;;;;;;;53.60;35.83;;;;;;;;;;143725;577;46022;-61
2021/12/30 03:31:52;;;;;;;54.65;35.45;;;;;;;;;;143727;577;46018;-62
2021/12/30 03:34:19;;;;;;;50.65;33.35;;;;;;;;;;143729;574;46023;-62
2021/12/30 03:36:46;;;;;;;51.58;34.22;;;;;;;;;;143727;571;46045;-62
2021/12/30 03:39:14;;;;;;;45.55;31.05;;;;;;;;;;143727;601;46023;-61
2021/12/30 03:41:40;;;;;;;47.33;34.10;;;;;;;;;;143728;694;46019;-62
2021/12/30 03:44:09;;;;;;;57.03;33.58;;;;;;;;;;143727;592;47022;-62
2021/12/30 03:46:36;;;;;;;53.97;34.95;;;;;;;;;;143727;613;46020;-62
2021/12/30 03:49:06;;;;;;;48.95;32.65;;;;;;;;;;143725;625;46023;-62
2021/12/30 03:51:38;;;;;;;43.72;32.47;;;;;;;;;;143727;604;46018;-62
2021/12/30 03:54:06;;;;;;;47.67;31.15;;;;;;;;;;143730;569;46022;-61
2021/12/30 03:56:34;;;;;;;48.58;31.33;;;;;;;;;;143726;573;47018;-62
2021/12/30 03:59:03;;;;;;;52.65;33.90;;;;;;;;;;143725;625;46022;-62
2021/12/30 04:01:30;;;;;;;49.80;34.47;;;;;;;;;;143727;606;46018;-62
2021/12/30 04:03:58;;;;;;;48.78;33.38;;;;;;;;;;143731;628;46023;-62
2021/12/30 04:06:27;;;;;;;63.72;41.05;;;;;;;;;;143727;627;46020;-61
2021/12/30 04:08:56;;;;;;;54.20;39.33;;;;;;;;;;143725;591;46022;-63
2021/12/30 04:11:30;;;;;;;55.30;38.88;;;;;;;;;;143726;573;46018;-62
2021/12/30 04:13:57;;;;;;;63.83;39.35;;;;;;;;;;143729;577;46022;-62
2021/12/30 04:16:24;;;;;;;64.60;41.88;;;;;;;;;;143727;663;46020;-62
2021/12/30 04:18:51;;;;;;;58.55;35.75;;;;;;;;;;143725;583;46023;-62
2021/12/30 04:21:19;;;;;;;48.95;33.58;;;;;;;;;;143725;567;46018;-62
2021/12/30 04:23:46;;;;;;;60.70;38.33;;;;;;;;;;143731;617;46022;-61
2021/12/30 04:26:14;;;;;;;22.20;14.60;;;;;;;;;;143727;592;46021;-61
2021/12/30 04:28:41;;;;;;;39.67;24.92;;;;;;;;;;143725;585;46022;-62
2021/12/30 04:31:08;;;;;;;31.45;19.27;;;;;;;;;;143725;596;46019;-62
2021/12/30 04:33:34;;;;;;;27.05;19.60;;;;;;;;;;143730;599;46023;-62
2021/12/30 04:36:01;;;;;;;39.42;26.23;;;;;;;;;;143726;566;46020;-62
2021/12/30 04:38:31;;;;;;;30.42;20.83;;;;;;;;;;143724;642;46920;-61
2021/12/30 04:40:59;;;;;;;40.75;26.85;;;;;;;;;;143728;637;46019;-62
2021/12/30 04:43:26;;;;;;;41.72;29.70;;;;;;;;;;143728;571;46022;-61
2021/12/30 04:45:53;;;;;;;39.78;27.77;;;;;;;;;;143727;565;46020;-62
2021/12/30 04:48:21;;;;;;;42.70;31.08;;;;;;;;;;143727;641;46023;-62
2021/12/30 04:50:48;;;;;;;44.95;28.20;;;;;;;;;;143726;582;46018;-62
2021/12/30 04:53:18;;;;;;;37.00;26.52;;;;;;;;;;143729;575;46022;-61
2021/12/30 04:55:46;;;;;;;21.00;14.87;;;;;;;;;;143728;653;46021;-61
2021/12/30 04:58:14;;;;;;;18.23;11.32;;;;;;;;;;143724;569;46919;-62
2021/12/30 05:00:41;;;;;;;22.83;15.88;;;;;;;;;;143727;587;46018;-62
2021/12/30 05:03:12;;;;;;;19.52;13.10;;;;;;;;;;143726;663;46023;-61
2021/12/30 05:05:50;;;;;;;20.60;12.45;;;;;;;;;;143726;625;47018;-61
2021/12/30 05:08:20;;;;;;;7.72;4.28;;;;;;;;;;143724;612;46022;-61
2021/12/30 05:10:48;;;;;;;11.50;7.62;;;;;;;;;;143725;577;46019;-61
2021/12/30 05:13:16;;;;;;;8.98;5.25;;;;;;;;;;143729;597;46022;-61
2021/12/30 05:15:43;;;;;;;8.68;6.22;;;;;;;;;;143725;571;46020;-62
2021/12/30 05:18:15;;;;;;;10.23;7.22;;;;;;;;;;143725;579;46023;-62
2021/12/30 05:20:43;;;;;;;15.57;9.75;;;;;;;;;;143724;564;46018;-62
2021/12/30 05:23:10;;;;;;;15.15;10.90;;;;;;;;;;143727;593;46034;-61
2021/12/30 05:25:37;;;;;;;8.75;6.12;;;;;;;;;;143726;585;46021;-61
2021/12/30 05:28:07;;;;;;;7.50;5.07;;;;;;;;;;143726;575;46022;-61
2021/12/30 05:30:34;;;;;;;10.07;7.37;;;;;;;;;;143725;578;46022;-62
2021/12/30 05:33:01;;;;;;;9.00;6.37;;;;;;;;;;143730;585;46023;-62
2021/12/30 05:35:28;;;;;;;13.77;8.68;;;;;;;;;;143728;573;47020;-62
2021/12/30 05:37:55;;;;;;;7.37;4.55;;;;;;;;;;143724;609;46920;-62
2021/12/30 05:40:25;;;;;;;7.22;5.12;;;;;;;;;;143723;564;46019;-62
2021/12/30 05:42:52;;;;;;;5.93;4.70;;;;;;;;;;143730;666;46022;-62
2021/12/30 05:45:20;;;;;;;5.70;3.90;;;;;;;;;;143726;588;46020;-61
2021/12/30 05:47:50;;;;;;;7.97;4.87;;;;;;;;;;143727;570;46022;-61
2021/12/30 05:50:23;;;;;;;7.18;4.40;;;;;;;;;;143726;618;46018;-61
2021/12/30 05:52:50;;;;;;;8.95;6.00;;;;;;;;;;143730;635;46022;-62
2021/12/30 05:55:18;;;;;;;9.68;5.85;;;;;;;;;;143725;564;46048;-62
2021/12/30 05:57:46;;;;;;;7.90;4.62;;;;;;;;;;143727;662;46029;-62
2021/12/30 06:00:16;;;;;;;7.15;4.37;;;;;;;;;;143727;613;46018;-61
2021/12/30 06:02:43;;;;;;;7.37;5.40;;;;;;;;;;143729;605;46023;-62
2021/12/30 06:05:10;;;;;;;12.18;7.37;;;;;;;;;;143728;646;46020;-61
2021/12/30 06:07:38;;;;;;;9.18;6.40;;;;;;;;;;143725;566;46022;-62
2021/12/30 06:10:06;;;;;;;12.48;9.05;;;;;;;;;;143725;572;46914;-62
2021/12/30 06:12:33;;;;;;;11.95;7.57;;;;;;;;;;143729;585;46022;-62
2021/12/30 06:15:00;;;;;;;15.95;7.97;;;;;;;;;;143726;611;47020;-61
2021/12/30 06:17:27;;;;;;;11.88;7.80;;;;;;;;;;143726;577;46022;-62
2021/12/30 06:19:54;;;;;;;12.77;8.77;;;;;;;;;;143727;596;46018;-62
2021/12/30 06:22:22;;;;;;;12.30;7.87;;;;;;;;;;143730;564;46022;-61
2021/12/30 06:24:49;;;;;;;12.50;8.77;;;;;;;;;;143725;647;47012;-62
2021/12/30 06:27:16;;;;;;;9.93;7.45;;;;;;;;;;143727;637;46022;-62
2021/12/30 06:29:43;;;;;;;12.73;8.07;;;;;;;;;;143727;607;46018;-62
2021/12/30 06:32:10;;;;;;;10.20;7.57;;;;;;;;;;143729;612;46023;-62
2021/12/30 06:34:37;;;;;;;10.35;7.82;;;;;;;;;;143726;565;46020;-62
2021/12/30 06:37:04;;;;;;;13.00;7.45;;;;;;;;;;143725;571;46022;-62
2021/12/30 06:39:31;;;;;;;11.30;8.90;;;;;;;;;;143726;580;46019;-63
2021/12/30 06:41:58;;;;;;;12.48;8.55;;;;;;;;;;143731;597;46022;-63
2021/12/30 06:44:25;;;;;;;17.77;12.40;;;;;;;;;;143727;589;46047;-63
2021/12/30 06:46:56;;;;;;;21.62;13.65;;;;;;;;;;143724;613;46023;-63
2021/12/30 06:49:24;;;;;;;14.02;10.05;;;;;;;;;;143725;612;46018;-62
2021/12/30 06:51:51;;;;;;;18.00;12.43;;;;;;;;;;143730;644;46022;-62
2021/12/30 06:54:18;;;;;;;19.85;13.75;;;;;;;;;;143727;564;46044;-63
2021/12/30 06:56:47;;;;;;;21.02;13.65;;;;;;;;;;143725;579;46022;-63
2021/12/30 06:59:15;;;;;;;17.92;13.23;;;;;;;;;;143724;636;46018;-63
2021/12/30 07:01:44;;;;;;;19.15;14.27;;;;;;;;;;143729;658;46022;-63
2021/12/30 07:04:11;;;;;;;21.77;15.23;;;;;;;;;;143726;579;46020;-62
2021/12/30 07:06:38;;;;;;;19.42;14.10;;;;;;;;;;143725;637;46022;-62
2021/12/30 07:09:05;;;;;;;19.25;14.45;;;;;;;;;;143725;601;46018;-63
2021/12/30 07:11:32;;;;;;;24.15;16.98;;;;;;;;;;143731;595;46022;-61
2021/12/30 07:13:59;;;;;;;24.25;16.42;;;;;;;;;;143727;570;46020;-62
2021/12/30 07:16:26;;;;;;;23.70;15.88;;;;;;;;;;143727;647;46023;-62
2021/12/30 07:18:53;;;;;;;23.98;15.15;;;;;;;;;;143726;592;46018;-63
2021/12/30 07:21:20;;;;;;;18.20;14.23;;;;;;;;;;143730;566;46022;-62
2021/12/30 07:23:47;;;;;;;29.85;16.65;;;;;;;;;;143727;569;46045;-62
2021/12/30 07:26:15;;;;;;;22.98;15.32;;;;;;;;;;143727;604;46022;-62
2021/12/30 07:28:48;;;;;;;26.10;14.68;;;;;;;;;;143727;616;46018;-62
2021/12/30 07:31:14;;;;;;;24.73;16.20;;;;;;;;;;143729;641;46023;-63
2021/12/30 07:33:41;;;;;;;22.62;14.85;;;;;;;;;;143727;593;46020;-62
2021/12/30 07:36:08;;;;;;;14.98;11.73;;;;;;;;;;143726;591;46022;-63
2021/12/30 07:38:35;;;;;;;14.50;10.43;;;;;;;;;;143726;623;46019;-62
2021/12/30 07:41:04;;;;;;;14.90;9.25;;;;;;;;;;143730;620;46023;-62
2021/12/30 07:43:32;;;;;;;12.50;9.85;;;;;;;;;;143727;563;46020;-61
2021/12/30 07:45:59;;;;;;;17.12;9.07;;;;;;;;;;143724;621;46023;-63
2021/12/30 07:48:26;;;;;;;14.55;10.57;;;;;;;;;;143725;613;46018;-62
2021/12/30 07:50:53;;;;;;;23.92;13.18;;;;;;;;;;143728;673;46022;-62
2021/12/30 07:53:20;;;;;;;19.25;11.23;;;;;;;;;;143728;650;46020;-62
2021/12/30 07:55:48;;;;;;;15.35;10.43;;;;;;;;;;143725;594;46022;-63
2021/12/30 07:58:15;;;;;;;15.43;10.95;;;;;;;;;;143727;578;46018;-61
2021/12/30 08:00:42;;;;;;;13.13;9.98;;;;;;;;;;143729;622;46022;-61
2021/12/30 08:03:09;;;;;;;12.82;9.32;;;;;;;;;;143727;598;46020;-63
2021/12/30 08:05:36;;;;;;;11.60;9.43;;;;;;;;;;143725;589;46022;-62
2021/12/30 08:08:03;;;;;;;13.68;10.27;;;;;;;;;;143727;588;46018;-62
2021/12/30 08:10:30;;;;;;;15.82;9.23;;;;;;;;;;143731;578;46023;-62
2021/12/30 08:12:57;;;;;;;9.57;5.95;;;;;;;;;;143727;653;46020;-63
2021/12/30 08:15:25;;;;;;;3.65;2.50;;;;;;;;;;143725;574;46023;-62
2021/12/30 08:17:52;;;;;;;5.40;3.00;;;;;;;;;;143727;613;46018;-63
2021/12/30 08:20:21;;;;;;;4.45;3.45;;;;;;;;;;143728;573;46022;-63
2021/12/30 08:22:48;;;;;;;4.60;2.70;;;;;;;;;;143727;647;46020;-63
2021/12/30 08:25:15;;;;;;;5.57;2.72;;;;;;;;;;143724;619;46022;-63
2021/12/30 08:27:45;;;;;;;4.43;3.28;;;;;;;;;;143726;574;46018;-63
2021/12/30 08:30:15;;;;;;;6.87;4.20;;;;;;;;;;143731;664;46022;-63
2021/12/30 08:32:43;;;;;;;18.12;11.80;;;;;;;;;;143728;564;46021;-61
2021/12/30 08:35:11;;;;;;;13.15;7.57;;;;;;;;;;143725;569;46022;-63
2021/12/30 08:37:39;;;;;;;6.75;3.28;;;;;;;;;;143724;588;46018;-63
2021/12/30 08:40:11;;;;;;;3.08;2.15;;;;;;;;;;143731;600;46023;-62
2021/12/30 08:42:38;;;;;;;3.62;2.87;;;;;;;;;;143726;564;47018;-63
2021/12/30 08:45:06;;;;;;;3.28;2.22;;;;;;;;;;143727;656;46023;-62
2021/12/30 08:47:34;;;;;;;3.65;2.35;;;;;;;;;;143723;583;46018;-63
2021/12/30 08:50:07;;;;;;;6.82;2.75;;;;;;;;;;143729;575;46022;-62
2021/12/30 08:52:37;;;;;;;3.47;1.98;;;;;;;;;;143725;595;47019;-63
2021/12/30 08:55:04;;;;;;;2.28;1.90;;;;;;;;;;143724;628;46022;-62
2021/12/30 08:57:33;;;;;;;3.75;2.70;;;;;;;;;;143726;621;46018;-62
2021/12/30 09:00:00;;;;;;;4.07;2.17;;;;;;;;;;143730;600;46022;-63
2021/12/30 09:02:27;;;;;;;5.05;2.33;;;;;;;;;;143727;578;46021;-63
2021/12/30 09:04:54;;;;;;;3.05;2.28;;;;;;;;;;143728;614;46022;-63
2021/12/30 09:07:22;;;;;;;3.05;2.15;;;;;;;;;;143727;574;46018;-62
2021/12/30 09:09:50;;;;;;;1.92;1.77;;;;;;;;;;143731;635;46023;-63
2021/12/30 09:12:18;;;;;;;2.75;1.77;;;;;;;;;;143728;569;46020;-63
2021/12/30 09:14:45;;;;;;;3.72;2.45;;;;;;;;;;143726;569;46023;-62
2021/12/30 09:17:12;;;;;;;7.37;3.25;;;;;;;;;;143727;603;46019;-63
2021/12/30 09:19:39;;;;;;;7.05;3.03;;;;;;;;;;143731;588;46022;-62
2021/12/30 09:22:06;;;;;;;4.35;2.53;;;;;;;;;;143728;580;46048;-62
2021/12/30 09:24:33;;;;;;;4.80;2.33;;;;;;;;;;143726;615;46023;-63
2021/12/30 09:27:01;;;;;;;3.50;2.42;;;;;;;;;;143724;591;46913;-63
2021/12/30 09:29:29;;;;;;;5.60;2.17;;;;;;;;;;143735;653;46022;-62
2021/12/30 09:31:58;;;;;;;4.35;2.62;;;;;;;;;;143727;572;47018;-63
2021/12/30 09:34:26;;;;;;;5.60;2.60;;;;;;;;;;143728;584;46022;-63
2021/12/30 09:36:53;;;;;;;8.43;2.33;;;;;;;;;;143726;581;46018;-63
2021/12/30 09:39:20;;;;;;;2.87;1.95;;;;;;;;;;143729;660;46023;-63
2021/12/30 09:41:48;;;;;;;3.10;2.28;;;;;;;;;;143727;616;46020;-62
2021/12/30 09:44:17;;;;;;;2.30;1.45;;;;;;;;;;143724;569;46023;-63
2021/12/30 09:46:45;;;;;;;5.25;1.70;;;;;;;;;;143727;642;46019;-62
2021/12/30 09:49:14;;;;;;;2.28;2.08;;;;;;;;;;143731;593;46022;-63
2021/12/30 09:51:42;;;;;;;4.12;2.30;;;;;;;;;;143728;670;46020;-63
2021/12/30 09:54:13;;;;;;;3.80;2.28;;;;;;;;;;143726;564;46023;-63
2021/12/30 09:56:40;;;;;;;4.03;1.92;;;;;;;;;;143727;652;46018;-63
2021/12/30 09:59:08;;;;;;;4.62;2.33;;;;;;;;;;143732;595;46022;-63
2021/12/30 10:01:37;;;;;;;4.97;2.58;;;;;;;;;;143727;593;47021;-63
2021/12/30 10:04:06;;;;;;;2.22;1.98;;;;;;;;;;143725;653;46022;-63
2021/12/30 10:06:34;;;;;;;4.45;2.67;;;;;;;;;;143727;588;46018;-63
2021/12/30 10:09:12;;;;;;;3.22;2.08;;;;;;;;;;143730;757;46023;-62
2021/12/30 10:12:01;;;;;;;4.72;2.83;;;;;;;;;;143728;569;46020;-63
2021/12/30 10:14:33;;;;;;;4.62;2.67;;;;;;;;;;143727;574;46023;-63
2021/12/30 10:17:20;;;;;;;4.05;2.75;;;;;;;;;;143721;618;48913;-62
2021/12/30 10:19:48;;;;;;;3.37;2.35;;;;;;;;;;143731;686;46022;-62
2021/12/30 10:22:17;;;;;;;5.60;2.47;;;;;;;;;;143728;586;46020;-63
2021/12/30 10:24:45;;;;;;;4.55;2.37;;;;;;;;;;143726;632;46022;-63
2021/12/30 10:27:29;;;;;;;6.78;2.35;;;;;;;;;;143727;577;46018;-63
2021/12/30 10:29:58;;;;;;;4.25;2.60;;;;;;;;;;143733;616;46022;-62
2021/12/30 10:32:27;;;;;;;3.42;2.35;;;;;;;;;;143728;627;46020;-63
2021/12/30 10:35:15;;;;;;;5.55;2.67;;;;;;;;;;143724;585;46022;-62
2021/12/30 10:37:46;;;;;;;3.40;2.37;;;;;;;;;;143728;586;46019;-62
2021/12/30 10:40:49;;;;;;;4.70;2.58;;;;;;;;;;143731;584;46022;-63
2021/12/30 10:43:37;;;;;;;7.45;3.28;;;;;;;;;;143727;594;47018;-63
2021/12/30 10:46:21;;;;;;;7.57;2.92;;;;;;;;;;143725;585;46023;-62
2021/12/30 10:48:54;;;;;;;6.65;2.20;;;;;;;;;;143729;577;46018;-62
2021/12/30 10:51:43;;;;;;;4.43;2.30;;;;;;;;;;143732;597;46022;-63
2021/12/30 10:54:23;;;;;;;3.67;2.45;;;;;;;;;;143726;577;47018;-63
2021/12/30 10:57:01;;;;;;;4.32;2.80;;;;;;;;;;143730;570;46022;-63
2021/12/30 10:59:30;;;;;;;2.03;1.35;;;;;;;;;;143727;623;46018;-63
2021/12/30 11:02:18;;;;;;;3.87;2.28;;;;;;;;;;143732;610;46023;-63
2021/12/30 11:04:48;;;;;;;4.18;2.33;;;;;;;;;;143729;646;46022;-61
2021/12/30 11:07:18;;;;;;;3.40;2.17;;;;;;;;;;143727;573;46023;-63
2021/12/30 11:09:56;;;;;;;4.57;1.85;;;;;;;;;;143725;582;46018;-63
2021/12/30 11:12:29;;;;;;;4.97;2.85;;;;;;;;;;143732;576;46022;-63
2021/12/30 11:14:57;;;;;;;4.15;2.70;;;;;;;;;;143728;596;46020;-62
2021/12/30 11:17:35;;;;;;;4.03;2.25;;;;;;;;;;143728;573;46022;-62
2021/12/30 11:20:06;;;;;;;4.43;2.28;;;;;;;;;;143728;569;46018;-62
2021/12/30 11:22:40;;;;;;;3.12;2.12;;;;;;;;;;143732;575;46023;-63
2021/12/30 11:25:10;;;;;;;2.70;2.33;;;;;;;;;;143726;607;47018;-62
2021/12/30 11:27:38;;;;;;;2.80;1.73;;;;;;;;;;143727;585;46022;-63
2021/12/30 11:30:17;;;;;;;3.42;2.67;;;;;;;;;;143731;575;46019;-64
2021/12/30 11:32:48;;;;;;;3.03;2.30;;;;;;;;;;143732;595;46022;-63
2021/12/30 11:35:17;;;;;;;4.70;2.78;;;;;;;;;;143729;702;46020;-63
2021/12/30 11:37:47;;;;;;;5.85;2.83;;;;;;;;;;143728;595;46023;-62
2021/12/30 11:40:18;;;;;;;3.62;2.42;;;;;;;;;;143728;565;46018;-63
2021/12/30 11:42:48;;;;;;;5.93;2.60;;;;;;;;;;143731;579;46022;-63
2021/12/30 11:45:41;;;;;;;3.42;2.60;;;;;;;;;;143729;634;46021;-63
2021/12/30 11:48:28;;;;;;;7.00;2.55;;;;;;;;;;143729;583;46022;-63
2021/12/30 11:51:12;;;;;;;2.83;2.17;;;;;;;;;;143727;668;46020;-62
2021/12/30 11:53:39;;;;;;;5.00;2.65;;;;;;;;;;143734;569;46023;-62
2021/12/30 11:56:23;;;;;;;3.20;2.20;;;;;;;;;;143729;590;46047;-62
2021/12/30 11:58:57;;;;;;;3.78;2.30;;;;;;;;;;143725;583;46023;-62
2021/12/30 12:01:29;;;;;;;3.97;2.72;;;;;;;;;;143728;588;46018;-62
2021/12/30 12:04:09;;;;;;;5.97;3.12;;;;;;;;;;143731;594;46022;-62
2021/12/30 12:06:42;;;;;;;2.95;2.12;;;;;;;;;;143729;582;47019;-62
2021/12/30 12:09:39;;;;;;;8.00;3.17;;;;;;;;;;143727;573;46022;-63
2021/12/30 12:12:09;;;;;;;5.00;2.70;;;;;;;;;;143729;593;46020;-63
2021/12/30 12:14:59;;;;;;;7.72;3.20;;;;;;;;;;143732;576;46022;-62
2021/12/30 12:17:41;;;;;;;4.50;2.90;;;;;;;;;;143729;569;46020;-61
2021/12/30 12:20:34;;;;;;;6.65;3.42;;;;;;;;;;143725;618;46023;-63
2021/12/30 12:23:52;;;;;;;7.10;3.12;;;;;;;;;;143730;581;46021;-62
2021/12/30 12:26:19;;;;;;;9.98;3.42;;;;;;;;;;143732;614;46022;-62
2021/12/30 12:28:47;;;;;;;7.47;3.12;;;;;;;;;;143728;592;47019;-62
2021/12/30 12:31:15;;;;;;;6.18;3.90;;;;;;;;;;143728;576;46022;-63
2021/12/30 12:33:43;;;;;;;3.97;2.95;;;;;;;;;;143730;570;46018;-63
2021/12/30 12:36:14;;;;;;;7.60;3.03;;;;;;;;;;143732;586;46022;-63
2021/12/30 12:38:49;;;;;;;6.65;3.30;;;;;;;;;;143729;635;46021;-63
2021/12/30 12:41:30;;;;;;;3.92;2.58;;;;;;;;;;143728;565;46031;-63
2021/12/30 12:44:06;;;;;;;5.53;2.83;;;;;;;;;;143730;659;46018;-62
2021/12/30 12:46:45;;;;;;;10.57;3.22;;;;;;;;;;143731;590;46022;-61
2021/12/30 12:49:13;;;;;;;7.28;2.97;;;;;;;;;;143729;645;46020;-62
2021/12/30 12:51:54;;;;;;;6.68;2.78;;;;;;;;;;143729;575;46031;-61
2021/12/30 12:54:45;;;;;;;8.73;3.10;;;;;;;;;;143729;607;46018;-61
2021/12/30 12:57:19;;;;;;;5.47;3.05;;;;;;;;;;143730;587;46022;-64
2021/12/30 12:59:47;;;;;;;5.65;2.55;;;;;;;;;;143730;685;46021;-64
2021/12/30 13:02:16;;;;;;;9.20;2.87;;;;;;;;;;143725;581;46022;-63
2021/12/30 13:04:43;;;;;;;5.25;3.00;;;;;;;;;;143728;587;46018;-64
2021/12/30 13:07:17;;;;;;;4.60;2.28;;;;;;;;;;143731;592;46023;-63
2021/12/30 13:09:46;;;;;;;7.20;3.22;;;;;;;;;;143730;574;46020;-63
2021/12/30 13:12:14;;;;;;;9.02;3.40;;;;;;;;;;143725;580;46023;-63
2021/12/30 13:14:43;;;;;;;8.73;3.42;;;;;;;;;;143727;578;46019;-64
2021/12/30 13:17:13;;;;;;;12.90;3.37;;;;;;;;;;143732;573;46022;-63
2021/12/30 13:19:42;;;;;;;6.65;3.05;;;;;;;;;;143730;566;46010;-62
2021/12/30 13:22:15;;;;;;;6.87;3.17;;;;;;;;;;143729;564;46022;-61
2021/12/30 13:24:55;;;;;;;7.43;3.15;;;;;;;;;;143727;745;46018;-62
2021/12/30 13:27:53;;;;;;;5.80;3.60;;;;;;;;;;143732;637;46022;-63
2021/12/30 13:30:20;;;;;;;5.65;2.80;;;;;;;;;;143730;607;47018;-62
2021/12/30 13:32:53;;;;;;;8.30;3.45;;;;;;;;;;143727;661;46022;-63
2021/12/30 13:35:24;;;;;;;5.00;3.37;;;;;;;;;;143729;582;46018;-63
2021/12/30 13:37:59;;;;;;;6.07;3.05;;;;;;;;;;143731;569;46023;-63
2021/12/30 13:40:33;;;;;;;5.32;3.33;;;;;;;;;;143726;592;47018;-63
2021/12/30 13:43:20;;;;;;;10.57;3.58;;;;;;;;;;143728;601;46023;-64
2021/12/30 13:45:57;;;;;;;7.07;3.70;;;;;;;;;;143727;660;46019;-63
2021/12/30 13:48:30;;;;;;;5.18;3.12;;;;;;;;;;143732;671;46022;-64
2021/12/30 13:51:00;;;;;;;7.40;3.25;;;;;;;;;;143729;601;46020;-64
2021/12/30 13:53:30;;;;;;;8.45;3.33;;;;;;;;;;143727;746;46022;-64
2021/12/30 13:56:21;;;;;;;5.10;2.87;;;;;;;;;;143727;585;46018;-64
2021/12/30 13:58:49;;;;;;;3.87;2.90;;;;;;;;;;143731;578;46023;-63
2021/12/30 14:01:18;;;;;;;7.28;3.30;;;;;;;;;;143729;589;46020;-64
2021/12/30 14:03:52;;;;;;;6.07;3.10;;;;;;;;;;143727;571;46022;-62
2021/12/30 14:06:27;;;;;;;8.40;3.83;;;;;;;;;;143726;572;46021;-61
2021/12/30 14:09:04;;;;;;;6.87;3.75;;;;;;;;;;143731;612;46024;-62
2021/12/30 14:11:45;;;;;;;6.70;3.15;;;;;;;;;;143729;582;46020;-62
2021/12/30 14:14:30;;;;;;;6.55;3.65;;;;;;;;;;143728;574;46023;-62
2021/12/30 14:17:02;;;;;;;8.88;4.10;;;;;;;;;;143730;586;46018;-61
2021/12/30 14:19:36;;;;;;;6.07;3.30;;;;;;;;;;143732;657;46022;-62
2021/12/30 14:22:05;;;;;;;9.50;3.67;;;;;;;;;;143729;558;46021;-62
2021/12/30 14:24:33;;;;;;;12.18;3.72;;;;;;;;;;143726;583;46022;-62
2021/12/30 14:27:12;;;;;;;8.20;3.40;;;;;;;;;;143727;579;46018;-62
2021/12/30 14:29:43;;;;;;;8.10;4.20;;;;;;;;;;143731;617;46023;-62
2021/12/30 14:32:15;;;;;;;7.97;3.60;;;;;;;;;;143730;642;46020;-63
2021/12/30 14:34:44;;;;;;;9.73;3.87;;;;;;;;;;143726;596;46023;-61
2021/12/30 14:37:16;;;;;;;6.57;3.53;;;;;;;;;;143727;579;46018;-62
2021/12/30 14:39:54;;;;;;;6.95;3.45;;;;;;;;;;143732;640;46022;-62
2021/12/30 14:42:34;;;;;;;6.97;3.95;;;;;;;;;;143729;571;46020;-62
2021/12/30 14:45:17;;;;;;;7.70;3.65;;;;;;;;;;143727;623;46022;-62
2021/12/30 14:47:56;;;;;;;12.77;3.95;;;;;;;;;;143727;589;46018;-64
2021/12/30 14:50:28;;;;;;;7.57;4.15;;;;;;;;;;143733;641;46022;-63
2021/12/30 14:52:59;;;;;;;12.82;4.65;;;;;;;;;;143729;593;46021;-63